sensor_id;sensor_type;location;lat;lon;timestamp;P1;durP1;ratioP1;P2;durP2;ratioP2
42186;SDS011;27858;51.414;0.018;2023-03-03T00:01:16;5.05;;;2.15;;
42186;SDS011;27858;51.414;0.018;2023-03-03T00:03:43;6.13;;;1.60;;
42186;SDS011;27858;51.414;0.018;2023-03-03T00:06:11;5.05;;;1.92;;
42186;SDS011;27858;51.414;0.018;2023-03-03T00:08:39;3.22;;;1.80;;
42186;SDS011;27858;51.414;0.018;2023-03-03T00:11:06;4.18;;;1.88;;
42186;SDS011;27858;51.414;0.018;2023-03-03T00:13:43;12.60;;;2.90;;
42186;SDS011;27858;51.414;0.018;2023-03-03T00:18:43;2.50;;;1.80;;
42186;SDS011;27858;51.414;0.018;2023-03-03T00:21:21;3.08;;;1.85;;
42186;SDS011;27858;51.414;0.018;2023-03-03T00:23:51;3.40;;;1.38;;
42186;SDS011;27858;51.414;0.018;2023-03-03T00:26:33;5.20;;;1.83;;
42186;SDS011;27858;51.414;0.018;2023-03-03T00:29:01;2.92;;;1.65;;
42186;SDS011;27858;51.414;0.018;2023-03-03T00:32:22;5.57;;;1.90;;
42186;SDS011;27858;51.414;0.018;2023-03-03T00:34:52;3.67;;;2.38;;
42186;SDS011;27858;51.414;0.018;2023-03-03T00:40:10;6.03;;;1.92;;
42186;SDS011;27858;51.414;0.018;2023-03-03T00:42:48;2.53;;;2.17;;
42186;SDS011;27858;51.414;0.018;2023-03-03T00:45:21;5.50;;;2.28;;
42186;SDS011;27858;51.414;0.018;2023-03-03T00:47:49;4.90;;;2.47;;
42186;SDS011;27858;51.414;0.018;2023-03-03T00:50:22;5.40;;;2.38;;
42186;SDS011;27858;51.414;0.018;2023-03-03T00:53:04;4.03;;;2.55;;
42186;SDS011;27858;51.414;0.018;2023-03-03T00:55:45;3.97;;;1.90;;
42186;SDS011;27858;51.414;0.018;2023-03-03T00:58:14;6.75;;;2.78;;
42186;SDS011;27858;51.414;0.018;2023-03-03T05:00:55;5.07;;;2.03;;
42186;SDS011;27858;51.414;0.018;2023-03-03T05:03:23;4.22;;;2.20;;
42186;SDS011;27858;51.414;0.018;2023-03-03T05:05:50;5.47;;;1.90;;
42186;SDS011;27858;51.414;0.018;2023-03-03T05:08:16;4.47;;;2.63;;
42186;SDS011;27858;51.414;0.018;2023-03-03T05:10:43;4.38;;;2.85;;
42186;SDS011;27858;51.414;0.018;2023-03-03T05:13:10;4.18;;;2.47;;
42186;SDS011;27858;51.414;0.018;2023-03-03T05:15:40;4.97;;;2.47;;
42186;SDS011;27858;51.414;0.018;2023-03-03T05:18:08;2.80;;;1.67;;
42186;SDS011;27858;51.414;0.018;2023-03-03T05:20:38;2.15;;;1.75;;
42186;SDS011;27858;51.414;0.018;2023-03-03T05:23:07;4.75;;;1.85;;
42186;SDS011;27858;51.414;0.018;2023-03-03T05:25:34;3.22;;;1.70;;
42186;SDS011;27858;51.414;0.018;2023-03-03T05:28:00;4.45;;;1.52;;
42186;SDS011;27858;51.414;0.018;2023-03-03T05:30:27;2.72;;;1.67;;
42186;SDS011;27858;51.414;0.018;2023-03-03T05:32:54;2.92;;;1.90;;
42186;SDS011;27858;51.414;0.018;2023-03-03T05:35:21;3.47;;;1.90;;
42186;SDS011;27858;51.414;0.018;2023-03-03T05:37:48;5.47;;;2.90;;
42186;SDS011;27858;51.414;0.018;2023-03-03T05:40:15;3.67;;;1.50;;
42186;SDS011;27858;51.414;0.018;2023-03-03T05:42:42;4.63;;;1.65;;
42186;SDS011;27858;51.414;0.018;2023-03-03T05:45:10;2.45;;;1.80;;
42186;SDS011;27858;51.414;0.018;2023-03-03T05:47:37;6.32;;;1.95;;
42186;SDS011;27858;51.414;0.018;2023-03-03T05:50:04;3.63;;;1.80;;
42186;SDS011;27858;51.414;0.018;2023-03-03T05:52:31;4.10;;;2.10;;
42186;SDS011;27858;51.414;0.018;2023-03-03T05:54:58;2.55;;;1.58;;
42186;SDS011;27858;51.414;0.018;2023-03-03T05:57:24;2.88;;;1.60;;
42186;SDS011;27858;51.414;0.018;2023-03-03T05:59:51;1.90;;;1.17;;
42186;SDS011;27858;51.414;0.018;2023-03-03T06:02:18;4.20;;;1.83;;
42186;SDS011;27858;51.414;0.018;2023-03-03T06:04:45;4.65;;;2.42;;
42186;SDS011;27858;51.414;0.018;2023-03-03T06:07:11;5.15;;;1.48;;
42186;SDS011;27858;51.414;0.018;2023-03-03T06:09:38;8.35;;;3.05;;
42186;SDS011;27858;51.414;0.018;2023-03-03T06:12:05;3.60;;;1.83;;
42186;SDS011;27858;51.414;0.018;2023-03-03T06:14:32;2.22;;;1.77;;
42186;SDS011;27858;51.414;0.018;2023-03-03T06:16:59;3.85;;;1.55;;
42186;SDS011;27858;51.414;0.018;2023-03-03T06:19:26;4.22;;;2.17;;
42186;SDS011;27858;51.414;0.018;2023-03-03T06:21:52;3.42;;;2.13;;
42186;SDS011;27858;51.414;0.018;2023-03-03T06:24:19;4.57;;;2.13;;
42186;SDS011;27858;51.414;0.018;2023-03-03T06:26:46;4.25;;;1.88;;
42186;SDS011;27858;51.414;0.018;2023-03-03T06:29:13;11.15;;;2.40;;
42186;SDS011;27858;51.414;0.018;2023-03-03T06:31:41;2.35;;;1.60;;
42186;SDS011;27858;51.414;0.018;2023-03-03T06:34:08;4.28;;;1.65;;
42186;SDS011;27858;51.414;0.018;2023-03-03T06:36:35;2.70;;;1.50;;
42186;SDS011;27858;51.414;0.018;2023-03-03T06:39:02;3.38;;;1.77;;
42186;SDS011;27858;51.414;0.018;2023-03-03T06:41:29;9.00;;;2.20;;
42186;SDS011;27858;51.414;0.018;2023-03-03T06:43:56;3.10;;;1.60;;
42186;SDS011;27858;51.414;0.018;2023-03-03T06:46:23;2.65;;;1.55;;
42186;SDS011;27858;51.414;0.018;2023-03-03T06:48:50;10.38;;;1.98;;
42186;SDS011;27858;51.414;0.018;2023-03-03T06:53:47;4.93;;;1.90;;
42186;SDS011;27858;51.414;0.018;2023-03-03T06:56:17;3.58;;;1.75;;
42186;SDS011;27858;51.414;0.018;2023-03-03T06:58:44;3.92;;;2.22;;
42186;SDS011;27858;51.414;0.018;2023-03-03T07:01:12;2.75;;;2.00;;
42186;SDS011;27858;51.414;0.018;2023-03-03T07:03:42;2.88;;;1.70;;
42186;SDS011;27858;51.414;0.018;2023-03-03T07:06:22;3.60;;;2.40;;
42186;SDS011;27858;51.414;0.018;2023-03-03T07:08:53;3.55;;;1.98;;
42186;SDS011;27858;51.414;0.018;2023-03-03T07:11:21;3.55;;;1.98;;
42186;SDS011;27858;51.414;0.018;2023-03-03T07:13:49;4.13;;;2.08;;
42186;SDS011;27858;51.414;0.018;2023-03-03T07:16:18;12.02;;;2.85;;
42186;SDS011;27858;51.414;0.018;2023-03-03T07:18:51;6.50;;;2.80;;
42186;SDS011;27858;51.414;0.018;2023-03-03T07:21:30;5.85;;;1.77;;
42186;SDS011;27858;51.414;0.018;2023-03-03T07:24:00;1.98;;;1.40;;
42186;SDS011;27858;51.414;0.018;2023-03-03T07:26:40;4.93;;;1.60;;
42186;SDS011;27858;51.414;0.018;2023-03-03T07:29:28;3.85;;;1.85;;
42186;SDS011;27858;51.414;0.018;2023-03-03T07:31:59;2.72;;;1.40;;
42186;SDS011;27858;51.414;0.018;2023-03-03T07:37:09;5.10;;;2.15;;
42186;SDS011;27858;51.414;0.018;2023-03-03T07:39:42;2.25;;;1.60;;
42186;SDS011;27858;51.414;0.018;2023-03-03T07:42:13;4.47;;;3.28;;
42186;SDS011;27858;51.414;0.018;2023-03-03T07:44:49;9.75;;;2.00;;
42186;SDS011;27858;51.414;0.018;2023-03-03T07:49:47;2.30;;;1.60;;
42186;SDS011;27858;51.414;0.018;2023-03-03T08:03:31;6.43;;;1.92;;
42186;SDS011;27858;51.414;0.018;2023-03-03T08:06:06;4.40;;;1.50;;
42186;SDS011;27858;51.414;0.018;2023-03-03T08:08:56;5.03;;;2.05;;
42186;SDS011;27858;51.414;0.018;2023-03-03T08:11:44;2.78;;;1.40;;
42186;SDS011;27858;51.414;0.018;2023-03-03T08:14:18;2.08;;;1.48;;
42186;SDS011;27858;51.414;0.018;2023-03-03T08:16:59;3.92;;;2.10;;
42186;SDS011;27858;51.414;0.018;2023-03-03T08:19:27;6.05;;;2.95;;
42186;SDS011;27858;51.414;0.018;2023-03-03T08:21:57;4.22;;;2.00;;
42186;SDS011;27858;51.414;0.018;2023-03-03T08:24:32;2.45;;;1.95;;
42186;SDS011;27858;51.414;0.018;2023-03-03T08:26:58;4.25;;;2.38;;
42186;SDS011;27858;51.414;0.018;2023-03-03T08:29:25;4.25;;;2.95;;
42186;SDS011;27858;51.414;0.018;2023-03-03T08:31:52;10.02;;;3.10;;
42186;SDS011;27858;51.414;0.018;2023-03-03T08:34:19;4.50;;;2.50;;
42186;SDS011;27858;51.414;0.018;2023-03-03T08:36:46;4.18;;;2.13;;
42186;SDS011;27858;51.414;0.018;2023-03-03T08:39:13;2.20;;;1.60;;
42186;SDS011;27858;51.414;0.018;2023-03-03T08:41:40;5.65;;;1.90;;
42186;SDS011;27858;51.414;0.018;2023-03-03T08:44:09;5.60;;;2.60;;
42186;SDS011;27858;51.414;0.018;2023-03-03T08:46:36;5.65;;;2.00;;
42186;SDS011;27858;51.414;0.018;2023-03-03T08:49:04;4.50;;;2.53;;
42186;SDS011;27858;51.414;0.018;2023-03-03T08:51:31;3.22;;;2.05;;
42186;SDS011;27858;51.414;0.018;2023-03-03T08:54:00;4.30;;;2.28;;
42186;SDS011;27858;51.414;0.018;2023-03-03T08:56:26;7.93;;;2.38;;
42186;SDS011;27858;51.414;0.018;2023-03-03T08:58:53;7.28;;;2.22;;
42186;SDS011;27858;51.414;0.018;2023-03-03T09:01:29;2.78;;;1.65;;
42186;SDS011;27858;51.414;0.018;2023-03-03T09:03:57;8.57;;;1.80;;
42186;SDS011;27858;51.414;0.018;2023-03-03T09:06:24;7.65;;;3.05;;
42186;SDS011;27858;51.414;0.018;2023-03-03T09:08:51;5.85;;;1.52;;
42186;SDS011;27858;51.414;0.018;2023-03-03T09:11:24;2.80;;;2.33;;
42186;SDS011;27858;51.414;0.018;2023-03-03T09:13:57;5.50;;;1.80;;
42186;SDS011;27858;51.414;0.018;2023-03-03T09:16:34;2.97;;;2.03;;
42186;SDS011;27858;51.414;0.018;2023-03-03T09:19:18;4.47;;;2.47;;
42186;SDS011;27858;51.414;0.018;2023-03-03T09:21:50;4.43;;;2.42;;
42186;SDS011;27858;51.414;0.018;2023-03-03T09:24:26;6.18;;;2.20;;
42186;SDS011;27858;51.414;0.018;2023-03-03T09:26:55;23.08;;;2.88;;
42186;SDS011;27858;51.414;0.018;2023-03-03T09:29:35;6.47;;;2.38;;
42186;SDS011;27858;51.414;0.018;2023-03-03T09:35:50;7.13;;;1.92;;
42186;SDS011;27858;51.414;0.018;2023-03-03T09:37:51;1.77;;;1.38;;
42186;SDS011;27858;51.414;0.018;2023-03-03T09:45:51;1.83;;;1.38;;
42186;SDS011;27858;51.414;0.018;2023-03-03T09:48:56;3.30;;;1.33;;
42186;SDS011;27858;51.414;0.018;2023-03-03T09:54:38;13.00;;;2.25;;
42186;SDS011;27858;51.414;0.018;2023-03-03T09:57:10;4.10;;;1.23;;
42186;SDS011;27858;51.414;0.018;2023-03-03T10:00:00;1.63;;;1.13;;
42186;SDS011;27858;51.414;0.018;2023-03-03T10:02:34;2.58;;;1.13;;
42186;SDS011;27858;51.414;0.018;2023-03-03T10:05:11;4.45;;;1.38;;
42186;SDS011;27858;51.414;0.018;2023-03-03T10:08:02;4.15;;;1.83;;
42186;SDS011;27858;51.414;0.018;2023-03-03T10:11:12;4.43;;;1.63;;
42186;SDS011;27858;51.414;0.018;2023-03-03T10:24:44;2.33;;;1.73;;
42186;SDS011;27858;51.414;0.018;2023-03-03T10:32:52;2.25;;;1.55;;
42186;SDS011;27858;51.414;0.018;2023-03-03T10:40:25;3.90;;;1.50;;
42186;SDS011;27858;51.414;0.018;2023-03-03T10:48:47;4.88;;;1.83;;
42186;SDS011;27858;51.414;0.018;2023-03-03T10:51:40;1.92;;;1.50;;
42186;SDS011;27858;51.414;0.018;2023-03-03T10:59:40;4.90;;;1.30;;
42186;SDS011;27858;51.414;0.018;2023-03-03T11:05:50;3.20;;;1.52;;
42186;SDS011;27858;51.414;0.018;2023-03-03T11:22:03;4.22;;;1.80;;
42186;SDS011;27858;51.414;0.018;2023-03-03T11:24:50;2.63;;;1.25;;
42186;SDS011;27858;51.414;0.018;2023-03-03T11:36:06;4.60;;;1.15;;
42186;SDS011;27858;51.414;0.018;2023-03-03T11:39:03;2.03;;;1.52;;
42186;SDS011;27858;51.414;0.018;2023-03-03T11:44:34;1.50;;;1.25;;
42186;SDS011;27858;51.414;0.018;2023-03-03T11:55:12;2.80;;;1.10;;
42186;SDS011;27858;51.414;0.018;2023-03-03T11:57:53;2.45;;;0.85;;
42186;SDS011;27858;51.414;0.018;2023-03-03T12:14:45;0.73;;;0.65;;
42186;SDS011;27858;51.414;0.018;2023-03-03T12:17:44;4.13;;;1.35;;
42186;SDS011;27858;51.414;0.018;2023-03-03T12:26:16;4.55;;;0.73;;
42186;SDS011;27858;51.414;0.018;2023-03-03T12:29:11;1.55;;;0.60;;
42186;SDS011;27858;51.414;0.018;2023-03-03T12:31:52;2.28;;;0.70;;
42186;SDS011;27858;51.414;0.018;2023-03-03T12:40:31;1.17;;;1.05;;
42186;SDS011;27858;51.414;0.018;2023-03-03T12:43:22;2.13;;;0.63;;
42186;SDS011;27858;51.414;0.018;2023-03-03T12:49:09;2.70;;;0.80;;
42186;SDS011;27858;51.414;0.018;2023-03-03T12:56:54;0.75;;;0.45;;
42186;SDS011;27858;51.414;0.018;2023-03-03T13:10:30;2.40;;;1.08;;
42186;SDS011;27858;51.414;0.018;2023-03-03T13:13:12;0.50;;;0.30;;
42186;SDS011;27858;51.414;0.018;2023-03-03T13:16:01;0.60;;;0.45;;
42186;SDS011;27858;51.414;0.018;2023-03-03T13:21:35;1.10;;;0.60;;
42186;SDS011;27858;51.414;0.018;2023-03-03T13:27:07;3.72;;;0.88;;
42186;SDS011;27858;51.414;0.018;2023-03-03T13:32:16;0.65;;;0.40;;
42186;SDS011;27858;51.414;0.018;2023-03-03T13:37:48;0.75;;;0.40;;
42186;SDS011;27858;51.414;0.018;2023-03-03T13:40:23;3.10;;;0.50;;
42186;SDS011;27858;51.414;0.018;2023-03-03T13:42:56;0.57;;;0.45;;
42186;SDS011;27858;51.414;0.018;2023-03-03T13:50:56;3.22;;;0.75;;
42186;SDS011;27858;51.414;0.018;2023-03-03T13:59:14;5.38;;;1.48;;
42186;SDS011;27858;51.414;0.018;2023-03-03T14:07:38;2.95;;;1.40;;
42186;SDS011;27858;51.414;0.018;2023-03-03T14:12:53;0.93;;;0.90;;
42186;SDS011;27858;51.414;0.018;2023-03-03T14:16:01;2.70;;;0.80;;
42186;SDS011;27858;51.414;0.018;2023-03-03T14:18:33;1.27;;;1.17;;
42186;SDS011;27858;51.414;0.018;2023-03-03T14:21:15;1.63;;;0.95;;
42186;SDS011;27858;51.414;0.018;2023-03-03T14:23:51;2.70;;;0.98;;
42186;SDS011;27858;51.414;0.018;2023-03-03T14:26:24;4.18;;;1.10;;
42186;SDS011;27858;51.414;0.018;2023-03-03T14:28:51;4.50;;;1.05;;
42186;SDS011;27858;51.414;0.018;2023-03-03T14:31:42;2.08;;;1.20;;
42186;SDS011;27858;51.414;0.018;2023-03-03T14:36:49;3.03;;;0.88;;
42186;SDS011;27858;51.414;0.018;2023-03-03T14:39:32;0.60;;;0.43;;
42186;SDS011;27858;51.414;0.018;2023-03-03T14:42:06;1.02;;;0.40;;
42186;SDS011;27858;51.414;0.018;2023-03-03T14:44:49;1.13;;;0.52;;
42186;SDS011;27858;51.414;0.018;2023-03-03T14:47:23;1.50;;;0.47;;
42186;SDS011;27858;51.414;0.018;2023-03-03T14:49:53;1.05;;;0.75;;
42186;SDS011;27858;51.414;0.018;2023-03-03T14:52:26;4.00;;;1.17;;
42186;SDS011;27858;51.414;0.018;2023-03-03T14:54:56;3.42;;;1.02;;
42186;SDS011;27858;51.414;0.018;2023-03-03T15:05:47;1.55;;;0.40;;
42186;SDS011;27858;51.414;0.018;2023-03-03T15:08:33;7.75;;;1.75;;
42186;SDS011;27858;51.414;0.018;2023-03-03T15:11:12;4.57;;;0.70;;
42186;SDS011;27858;51.414;0.018;2023-03-03T15:13:39;4.35;;;0.52;;
42186;SDS011;27858;51.414;0.018;2023-03-03T15:16:16;4.35;;;1.17;;
42186;SDS011;27858;51.414;0.018;2023-03-03T15:26:34;5.25;;;1.15;;
42186;SDS011;27858;51.414;0.018;2023-03-03T15:37:26;1.35;;;0.88;;
42186;SDS011;27858;51.414;0.018;2023-03-03T15:45:43;6.43;;;0.70;;
42186;SDS011;27858;51.414;0.018;2023-03-03T15:54:45;1.13;;;0.77;;
42186;SDS011;27858;51.414;0.018;2023-03-03T15:57:36;1.25;;;0.85;;
42186;SDS011;27858;51.414;0.018;2023-03-03T16:00:21;5.38;;;0.82;;
42186;SDS011;27858;51.414;0.018;2023-03-03T16:03:11;5.85;;;1.45;;
42186;SDS011;27858;51.414;0.018;2023-03-03T16:05:48;0.63;;;0.40;;
42186;SDS011;27858;51.414;0.018;2023-03-03T16:09:05;1.20;;;0.55;;
42186;SDS011;27858;51.414;0.018;2023-03-03T16:25:52;1.80;;;0.50;;
42186;SDS011;27858;51.414;0.018;2023-03-03T16:34:29;0.75;;;0.40;;
42186;SDS011;27858;51.414;0.018;2023-03-03T16:37:28;1.33;;;0.60;;
42186;SDS011;27858;51.414;0.018;2023-03-03T16:46:19;2.00;;;0.82;;
42186;SDS011;27858;51.414;0.018;2023-03-03T16:54:38;3.63;;;1.00;;
42186;SDS011;27858;51.414;0.018;2023-03-03T16:57:33;1.45;;;0.88;;
42186;SDS011;27858;51.414;0.018;2023-03-03T17:00:07;0.55;;;0.50;;
42186;SDS011;27858;51.414;0.018;2023-03-03T17:05:39;0.85;;;0.60;;
42186;SDS011;27858;51.414;0.018;2023-03-03T17:11:27;3.42;;;0.98;;
42186;SDS011;27858;51.414;0.018;2023-03-03T17:14:06;1.73;;;0.60;;
42186;SDS011;27858;51.414;0.018;2023-03-03T17:19:24;3.00;;;1.45;;
42186;SDS011;27858;51.414;0.018;2023-03-03T17:45:13;0.70;;;0.40;;
42186;SDS011;27858;51.414;0.018;2023-03-03T17:56:28;4.75;;;1.25;;
42186;SDS011;27858;51.414;0.018;2023-03-03T18:11:33;1.75;;;0.80;;
42186;SDS011;27858;51.414;0.018;2023-03-03T18:13:57;1.80;;;1.20;;
42186;SDS011;27858;51.414;0.018;2023-03-03T18:22:32;2.20;;;1.35;;
42186;SDS011;27858;51.414;0.018;2023-03-03T18:25:14;1.40;;;0.98;;
42186;SDS011;27858;51.414;0.018;2023-03-03T18:28:14;3.65;;;1.27;;
42186;SDS011;27858;51.414;0.018;2023-03-03T18:30:30;5.47;;;1.25;;
42186;SDS011;27858;51.414;0.018;2023-03-03T18:33:41;2.38;;;1.35;;
42186;SDS011;27858;51.414;0.018;2023-03-03T18:38:52;6.82;;;1.20;;
42186;SDS011;27858;51.414;0.018;2023-03-03T18:41:29;3.45;;;1.40;;
42186;SDS011;27858;51.414;0.018;2023-03-03T18:46:58;6.38;;;1.40;;
42186;SDS011;27858;51.414;0.018;2023-03-03T18:49:46;4.82;;;1.40;;
42186;SDS011;27858;51.414;0.018;2023-03-03T18:53:04;4.10;;;1.48;;
42186;SDS011;27858;51.414;0.018;2023-03-03T18:55:44;2.25;;;1.42;;
42186;SDS011;27858;51.414;0.018;2023-03-03T18:58:35;3.40;;;1.30;;
42186;SDS011;27858;51.414;0.018;2023-03-03T19:03:37;8.35;;;1.40;;
42186;SDS011;27858;51.414;0.018;2023-03-03T19:08:57;3.75;;;1.80;;
42186;SDS011;27858;51.414;0.018;2023-03-03T19:14:12;3.03;;;1.70;;
42186;SDS011;27858;51.414;0.018;2023-03-03T19:16:56;5.80;;;1.83;;
42186;SDS011;27858;51.414;0.018;2023-03-03T19:20:00;2.45;;;1.48;;
42186;SDS011;27858;51.414;0.018;2023-03-03T19:22:45;2.33;;;1.27;;
42186;SDS011;27858;51.414;0.018;2023-03-03T19:25:39;2.38;;;1.63;;
42186;SDS011;27858;51.414;0.018;2023-03-03T19:31:05;3.10;;;1.67;;
42186;SDS011;27858;51.414;0.018;2023-03-03T19:34:15;3.65;;;1.20;;
42186;SDS011;27858;51.414;0.018;2023-03-03T19:39:41;3.10;;;1.70;;
42186;SDS011;27858;51.414;0.018;2023-03-03T19:42:37;4.75;;;1.38;;
42186;SDS011;27858;51.414;0.018;2023-03-03T19:53:06;2.53;;;1.67;;
42186;SDS011;27858;51.414;0.018;2023-03-03T19:55:56;13.45;;;2.08;;
42186;SDS011;27858;51.414;0.018;2023-03-03T19:58:57;3.10;;;1.40;;
42186;SDS011;27858;51.414;0.018;2023-03-03T20:05:06;3.35;;;1.75;;
42186;SDS011;27858;51.414;0.018;2023-03-03T20:23:38;3.95;;;1.13;;
42186;SDS011;27858;51.414;0.018;2023-03-03T20:56:07;4.68;;;1.70;;
42186;SDS011;27858;51.414;0.018;2023-03-03T21:01:26;3.90;;;1.60;;
42186;SDS011;27858;51.414;0.018;2023-03-03T21:04:17;6.78;;;1.30;;
42186;SDS011;27858;51.414;0.018;2023-03-03T21:06:52;4.82;;;1.58;;
42186;SDS011;27858;51.414;0.018;2023-03-03T21:09:43;4.60;;;1.20;;
42186;SDS011;27858;51.414;0.018;2023-03-03T21:12:49;8.13;;;1.88;;
42186;SDS011;27858;51.414;0.018;2023-03-03T21:15:02;3.58;;;1.42;;
42186;SDS011;27858;51.414;0.018;2023-03-03T21:17:37;13.10;;;2.47;;
42186;SDS011;27858;51.414;0.018;2023-03-03T21:23:07;7.88;;;1.98;;
42186;SDS011;27858;51.414;0.018;2023-03-03T21:28:14;3.45;;;1.75;;
42186;SDS011;27858;51.414;0.018;2023-03-03T21:36:12;2.28;;;1.23;;
42186;SDS011;27858;51.414;0.018;2023-03-03T21:38:43;7.07;;;1.70;;
42186;SDS011;27858;51.414;0.018;2023-03-03T21:41:12;6.30;;;1.55;;
42186;SDS011;27858;51.414;0.018;2023-03-03T21:43:41;5.72;;;1.55;;
42186;SDS011;27858;51.414;0.018;2023-03-03T21:46:09;5.68;;;1.65;;
42186;SDS011;27858;51.414;0.018;2023-03-03T21:48:40;5.35;;;1.80;;
42186;SDS011;27858;51.414;0.018;2023-03-03T21:51:08;5.28;;;1.52;;
42186;SDS011;27858;51.414;0.018;2023-03-03T21:53:36;11.18;;;2.35;;
42186;SDS011;27858;51.414;0.018;2023-03-03T21:56:02;5.38;;;1.67;;
42186;SDS011;27858;51.414;0.018;2023-03-03T21:58:29;6.97;;;1.35;;
42186;SDS011;27858;51.414;0.018;2023-03-03T22:00:56;3.45;;;1.45;;
42186;SDS011;27858;51.414;0.018;2023-03-03T22:03:23;5.90;;;1.67;;
42186;SDS011;27858;51.414;0.018;2023-03-03T22:05:50;9.95;;;3.05;;
42186;SDS011;27858;51.414;0.018;2023-03-03T22:08:18;6.13;;;2.63;;
42186;SDS011;27858;51.414;0.018;2023-03-03T22:10:49;9.43;;;1.88;;
42186;SDS011;27858;51.414;0.018;2023-03-03T22:13:19;6.45;;;1.42;;
42186;SDS011;27858;51.414;0.018;2023-03-03T22:15:46;8.02;;;1.77;;
42186;SDS011;27858;51.414;0.018;2023-03-03T22:18:14;5.90;;;1.80;;
42186;SDS011;27858;51.414;0.018;2023-03-03T22:20:46;8.35;;;1.38;;
42186;SDS011;27858;51.414;0.018;2023-03-03T22:23:14;3.83;;;1.30;;
42186;SDS011;27858;51.414;0.018;2023-03-03T22:25:41;3.58;;;1.88;;
42186;SDS011;27858;51.414;0.018;2023-03-03T22:28:07;7.57;;;2.08;;
42186;SDS011;27858;51.414;0.018;2023-03-03T22:30:35;5.13;;;1.95;;
42186;SDS011;27858;51.414;0.018;2023-03-03T22:33:02;14.02;;;2.50;;
42186;SDS011;27858;51.414;0.018;2023-03-03T22:35:29;13.63;;;2.40;;
42186;SDS011;27858;51.414;0.018;2023-03-03T22:37:56;1.63;;;0.88;;
42186;SDS011;27858;51.414;0.018;2023-03-03T22:40:22;5.50;;;1.50;;
42186;SDS011;27858;51.414;0.018;2023-03-03T22:42:49;9.15;;;2.10;;
42186;SDS011;27858;51.414;0.018;2023-03-03T22:45:16;11.00;;;3.08;;
42186;SDS011;27858;51.414;0.018;2023-03-03T22:47:43;7.95;;;1.60;;
42186;SDS011;27858;51.414;0.018;2023-03-03T22:50:10;4.97;;;1.15;;
42186;SDS011;27858;51.414;0.018;2023-03-03T22:52:40;5.78;;;1.02;;
42186;SDS011;27858;51.414;0.018;2023-03-03T22:55:06;7.50;;;1.40;;
42186;SDS011;27858;51.414;0.018;2023-03-03T22:57:34;9.57;;;1.35;;
42186;SDS011;27858;51.414;0.018;2023-03-03T23:00:00;3.97;;;1.48;;
42186;SDS011;27858;51.414;0.018;2023-03-03T23:02:28;3.38;;;1.27;;
42186;SDS011;27858;51.414;0.018;2023-03-03T23:04:55;6.68;;;1.75;;
42186;SDS011;27858;51.414;0.018;2023-03-03T23:07:27;3.08;;;1.40;;
42186;SDS011;27858;51.414;0.018;2023-03-03T23:09:54;7.70;;;2.35;;
42186;SDS011;27858;51.414;0.018;2023-03-03T23:12:21;7.18;;;1.25;;
42186;SDS011;27858;51.414;0.018;2023-03-03T23:14:48;2.63;;;1.35;;
42186;SDS011;27858;51.414;0.018;2023-03-03T23:17:15;4.70;;;1.35;;
42186;SDS011;27858;51.414;0.018;2023-03-03T23:19:42;3.53;;;1.35;;
42186;SDS011;27858;51.414;0.018;2023-03-03T23:22:14;5.38;;;1.33;;
42186;SDS011;27858;51.414;0.018;2023-03-03T23:24:41;3.05;;;1.33;;
42186;SDS011;27858;51.414;0.018;2023-03-03T23:27:09;8.77;;;1.83;;
42186;SDS011;27858;51.414;0.018;2023-03-03T23:29:37;12.60;;;1.95;;
42186;SDS011;27858;51.414;0.018;2023-03-03T23:32:04;6.72;;;1.85;;
42186;SDS011;27858;51.414;0.018;2023-03-03T23:34:31;3.55;;;1.55;;
42186;SDS011;27858;51.414;0.018;2023-03-03T23:36:58;10.32;;;2.42;;
42186;SDS011;27858;51.414;0.018;2023-03-03T23:39:24;6.80;;;1.85;;
42186;SDS011;27858;51.414;0.018;2023-03-03T23:41:51;5.55;;;1.60;;
42186;SDS011;27858;51.414;0.018;2023-03-03T23:44:18;4.25;;;1.48;;
42186;SDS011;27858;51.414;0.018;2023-03-03T23:46:45;4.70;;;1.27;;
42186;SDS011;27858;51.414;0.018;2023-03-03T23:49:11;13.00;;;2.03;;
42186;SDS011;27858;51.414;0.018;2023-03-03T23:51:38;6.38;;;1.70;;
42186;SDS011;27858;51.414;0.018;2023-03-03T23:54:05;6.13;;;1.20;;
42186;SDS011;27858;51.414;0.018;2023-03-03T23:56:32;8.80;;;1.27;;
42186;SDS011;27858;51.414;0.018;2023-03-03T23:58:58;5.20;;;0.95;;
